Airfield :
LOGIN :

Register | Disclaimer

   EN    FR    IT 

 










Legend :    VFR   Marginal VFR   IFR   Intensive IFR   Very Intensive IFR
Visi :
Ceiling :
>= 8 km
>= 3000ft
5 to 8 km
1000 to 3000 ft
1500m to 5 km
500 to 1000 ft
800 to 1500m
200 to 500 ft
< 800m
< 200 ft
Symbols :   Thunderstorms  Fog  Heavy snow  Heavy precipitations  Wind > 20 kt
SIGMETs :     Misc.  Thunderstorms  Icing  Turbulence  Mountain Waves  Volcanic Ashes







- Airport Elevation : 2302 ft
- Download approach charts


LEAB - Albacete

CURRENT METAR :
  • 190200Z 15004KT 6000 NSC 02/02 Q1020 NOSIG

EXPIRED METARs :
  • 190100Z 15004KT 7000 NSC 03/03 Q1021 NOSIG
  • 190000Z 14006KT 8000 NSC 04/04 Q1020 NOSIG

TAF TAF LEAB
Valid from the 19 at 03:00 until the 19 at 12:00 UTC


190200Z 1903/1912 VRB05KT CAVOK
PROB40
TEMPO 1903/1909 3000 BR BKN006
PROB30
TEMPO 1903/1909 0200 FG VV001
No reported NOTAMs for that airfield.
3 SIGMETs reported for the Madrid FIR (LECM) :
 
Severe turbulence
LECM SIGMET 9 VALID 190000/190400 LEVA
LECM MADRID FIR/UIR SEV TURB FCST WI N4433 W00548 - N4156 W00746 - N4130 W00623 - N4001 W00657 - N40 W00527 - N4342 W00212 - N4433 W00548 FL180/300 MOV E 20KT NC=
Severe turbulence
LECM SIGMET 10 VALID 190000/190400 LEVA
LECM MADRID FIR/UIR SEV TURB FCST WI N3959 W00652 - N3959 W00523 - N3554 W00631 - N3553 W00726 - N3959 W00652 FL180/300 MOV E 20KT NC=
Severe turbulence
LECM SIGMET 1 VALID 190400/190800 LEVA
LECM MADRID FIR/UIR SEV TURB FCST WI N4410 W00339 - N4002 W00653 - N3708 W00723 - N3626 W00625 - N4326 W00143 - N4410 W00339 FL180/300 MOV E 20KT NC=



MET'MAP, your aeronautical weather chart ! - Copyright ORBIFLY December 2007 - Disclaimer

ORBIFLY MET'MAP TEAM :

Programming & Development : Alexandra Zaïnal
Concept & Development : Baudouin d'Aumeries
Co-Development & Prog : Marc-Olivier Méhu
Technical & hardware support : Manuel Goepfert

Contact : metmap@orbifly.com




SOURCES & CREDITS :

   NOAA